Time;durP1;ratioP1;P1;durP2;ratioP2;P2;SDS_P1;SDS_P2;PMS_P1;PMS_P2;Temp;Humidity;BMP_temperature;BMP_pressure;BME280_temperature;BME280_humidity;BME280_pressure;Samples;Min_cycle;Max_cycle;Signal;HPM_P1;HPM_P2
2020/12/27 00:00:30;;;;;;;2.50;0.98;;;2.40;74.20;;;;;;4888378;29;20061;-80
2020/12/27 00:02:58;;;;;;;3.28;1.55;;;2.40;74.20;;;;;;4878942;29;20084;-80
2020/12/27 00:05:25;;;;;;;2.67;0.95;;;2.40;74.20;;;;;;4882949;29;20060;-78
2020/12/27 00:07:51;;;;;;;3.30;1.27;;;2.40;74.20;;;;;;4894292;29;20113;-78
2020/12/27 00:10:18;;;;;;;2.28;1.25;;;2.30;74.40;;;;;;4882994;29;20061;-78
2020/12/27 00:12:45;;;;;;;4.07;1.35;;;2.30;74.60;;;;;;4899114;29;20113;-79
2020/12/27 00:15:12;;;;;;;1.75;0.98;;;2.30;74.50;;;;;;4886158;29;20064;-79
2020/12/27 00:17:39;;;;;;;2.20;0.88;;;2.30;74.70;;;;;;4900899;29;20474;-80
2020/12/27 00:20:07;;;;;;;3.50;1.05;;;2.30;74.40;;;;;;4885248;29;20057;-79
2020/12/27 00:22:34;;;;;;;2.90;1.15;;;2.30;74.50;;;;;;4868998;29;20060;-79
2020/12/27 00:25:02;;;;;;;2.25;0.70;;;2.30;74.20;;;;;;4895236;29;20053;-81
2020/12/27 00:27:29;;;;;;;2.33;0.98;;;2.30;74.30;;;;;;4879878;29;20053;-81
2020/12/27 00:29:59;;;;;;;2.88;0.80;;;2.30;73.60;;;;;;4887549;29;20056;-80
2020/12/27 00:32:28;;;;;;;2.60;1.10;;;2.20;74.10;;;;;;4878558;29;20124;-80
2020/12/27 00:34:56;;;;;;;9.57;1.60;;;2.20;74.20;;;;;;4877037;29;20056;-80
2020/12/27 00:37:23;;;;;;;2.22;0.93;;;2.20;74.00;;;;;;4875193;29;20076;-80
2020/12/27 00:39:54;;;;;;;2.97;1.05;;;2.20;74.20;;;;;;4902050;29;20068;-81
2020/12/27 00:42:21;;;;;;;1.47;0.77;;;2.10;74.40;;;;;;4892944;29;20151;-80
2020/12/27 00:44:48;;;;;;;5.63;1.40;;;2.10;74.40;;;;;;4877279;29;20049;-79
2020/12/27 00:47:15;;;;;;;5.32;2.05;;;2.00;74.30;;;;;;4886909;29;20060;-81
2020/12/27 00:49:42;;;;;;;1.05;0.60;;;2.00;74.70;;;;;;4865826;29;20061;-79
2020/12/27 00:52:09;;;;;;;1.27;0.75;;;1.90;74.90;;;;;;4878859;29;20217;-81
2020/12/27 00:54:37;;;;;;;2.42;1.30;;;1.90;74.90;;;;;;4862901;29;20387;-78
2020/12/27 00:57:06;;;;;;;2.92;0.98;;;1.90;75.00;;;;;;4878272;29;20057;-81
2020/12/27 00:59:34;;;;;;;2.30;0.90;;;1.80;74.60;;;;;;4864053;29;20270;-79
2020/12/27 01:02:02;;;;;;;2.42;0.93;;;1.80;74.50;;;;;;4894583;29;20251;-79
2020/12/27 01:05:05;;;;;;;1.65;0.70;;;1.80;74.50;;;;;;4827252;29;20066;-80
2020/12/27 01:07:34;;;;;;;6.47;1.33;;;1.80;74.00;;;;;;4878280;29;20058;-79
2020/12/27 01:10:15;;;;;;;2.23;0.80;;;1.80;74.50;;;;;;4868105;29;20069;-81
2020/12/27 01:12:42;;;;;;;1.88;0.50;;;1.70;74.40;;;;;;4878349;29;20112;-81
2020/12/27 01:15:12;;;;;;;3.65;1.35;;;1.70;74.80;;;;;;4888069;29;20060;-79
2020/12/27 01:17:59;;;;;;;1.85;1.10;;;1.70;74.80;;;;;;4872738;29;20060;-80
2020/12/27 01:20:30;;;;;;;3.28;0.75;;;1.60;75.20;;;;;;4875383;29;20088;-79
2020/12/27 01:22:57;;;;;;;1.83;0.55;;;1.60;75.30;;;;;;4878382;29;20064;-80
2020/12/27 01:25:34;;;;;;;1.90;0.70;;;1.60;75.20;;;;;;4861760;29;20057;-78
2020/12/27 01:28:02;;;;;;;0.50;0.35;;;1.60;75.10;;;;;;4869195;29;20261;-81
2020/12/27 01:30:28;;;;;;;1.52;0.75;;;1.50;75.30;;;;;;4875156;29;20048;-83
2020/12/27 01:33:03;;;;;;;2.78;0.77;;;1.50;75.60;;;;;;4874853;29;20060;-80
2020/12/27 01:35:35;;;;;;;2.55;0.68;;;1.50;75.50;;;;;;4884754;29;20065;-80
2020/12/27 01:38:02;;;;;;;2.03;0.60;;;1.40;75.70;;;;;;4883885;29;20124;-82
2020/12/27 01:40:29;;;;;;;1.48;0.70;;;1.50;75.40;;;;;;4859294;29;20124;-82
2020/12/27 01:42:57;;;;;;;0.82;0.65;;;1.40;75.60;;;;;;4874916;29;20052;-81
2020/12/27 01:45:26;;;;;;;1.80;0.65;;;1.40;75.70;;;;;;4870170;29;20060;-82
2020/12/27 01:48:16;;;;;;;2.05;0.93;;;1.40;76.00;;;;;;4890911;29;20064;-81
2020/12/27 01:50:53;;;;;;;0.80;0.43;;;1.40;75.70;;;;;;4868203;29;20049;-84
2020/12/27 01:53:35;;;;;;;5.97;0.50;;;1.40;75.60;;;;;;4855109;29;20087;-81
2020/12/27 01:56:08;;;;;;;1.88;0.85;;;1.40;75.80;;;;;;4851683;29;20076;-85
2020/12/27 01:58:45;;;;;;;1.45;0.60;;;1.40;76.10;;;;;;4874317;29;20064;-81
2020/12/27 02:01:19;;;;;;;2.22;1.10;;;1.40;76.00;;;;;;4866859;29;20132;-82
2020/12/27 02:03:52;;;;;;;1.63;1.25;;;1.40;75.70;;;;;;4871604;29;20213;-80
2020/12/27 02:06:33;;;;;;;1.60;0.40;;;1.40;75.80;;;;;;4877044;29;20377;-80
2020/12/27 02:09:11;;;;;;;1.52;1.20;;;1.40;75.80;;;;;;4869362;29;20094;-78
2020/12/27 02:11:43;;;;;;;1.55;0.70;;;1.40;75.90;;;;;;4858567;29;20065;-81
2020/12/27 02:14:11;;;;;;;1.02;0.30;;;1.50;75.90;;;;;;4891070;29;20049;-81
2020/12/27 02:16:40;;;;;;;0.93;0.57;;;1.50;75.60;;;;;;4874804;29;20082;-81
2020/12/27 02:19:25;;;;;;;7.97;0.77;;;1.50;75.80;;;;;;4872092;29;20115;-81
2020/12/27 02:21:57;;;;;;;1.00;0.55;;;1.60;75.60;;;;;;4881275;29;20052;-81
2020/12/27 02:24:43;;;;;;;1.58;0.90;;;1.60;75.70;;;;;;4887212;29;20368;-83
2020/12/27 02:27:14;;;;;;;1.00;0.38;;;1.60;75.60;;;;;;4857826;29;20060;-82
2020/12/27 02:29:41;;;;;;;4.32;0.52;;;1.70;75.20;;;;;;4859251;29;20265;-81
2020/12/27 02:32:10;;;;;;;2.58;0.30;;;1.70;75.20;;;;;;4859512;29;20053;-79
2020/12/27 02:34:39;;;;;;;1.55;0.40;;;1.80;75.20;;;;;;4880862;29;20163;-81
2020/12/27 02:37:05;;;;;;;1.88;0.55;;;1.70;75.30;;;;;;4900357;29;20165;-81
2020/12/27 02:39:49;;;;;;;3.15;0.60;;;1.80;74.90;;;;;;4881865;29;20048;-80
2020/12/27 02:42:16;;;;;;;1.65;0.55;;;1.70;75.00;;;;;;4879272;29;20045;-80
2020/12/27 02:45:09;;;;;;;1.55;0.77;;;1.70;75.10;;;;;;4870344;29;20112;-80
2020/12/27 02:48:02;;;;;;;1.35;0.68;;;1.70;75.60;;;;;;4896611;29;20065;-80
2020/12/27 02:50:55;;;;;;;0.73;0.30;;;1.70;75.70;;;;;;4893633;29;20420;-80
2020/12/27 02:53:23;;;;;;;1.05;0.47;;;1.70;75.50;;;;;;4883139;29;20119;-79
2020/12/27 02:55:50;;;;;;;1.02;0.38;;;1.70;75.80;;;;;;4888275;29;20060;-83
2020/12/27 02:58:17;;;;;;;3.17;0.95;;;1.70;75.80;;;;;;4863879;29;20128;-81
2020/12/27 03:00:49;;;;;;;2.63;0.80;;;1.70;75.80;;;;;;4868911;29;20336;-82
2020/12/27 03:03:35;;;;;;;0.70;0.52;;;1.70;75.90;;;;;;4897841;29;20067;-81
2020/12/27 03:06:11;;;;;;;1.55;0.60;;;1.70;75.70;;;;;;4865845;29;20088;-81
2020/12/27 03:08:39;;;;;;;4.53;0.93;;;1.70;75.80;;;;;;4883261;29;20109;-79
2020/12/27 03:11:26;;;;;;;1.70;0.60;;;1.80;75.50;;;;;;4880401;29;20375;-82
2020/12/27 03:13:53;;;;;;;1.40;0.65;;;1.80;75.20;;;;;;4875635;29;20385;-79
2020/12/27 03:16:21;;;;;;;2.00;0.50;;;1.80;75.60;;;;;;4861135;29;20045;-80
2020/12/27 03:19:03;;;;;;;1.20;0.75;;;1.70;75.50;;;;;;4865475;29;20071;-81
2020/12/27 03:21:53;;;;;;;3.50;0.63;;;1.70;75.20;;;;;;4863359;29;20060;-84
2020/12/27 03:24:39;;;;;;;1.02;0.50;;;1.80;75.20;;;;;;4892228;29;20053;-81
2020/12/27 03:27:07;;;;;;;2.58;0.73;;;1.80;75.00;;;;;;4879841;29;20065;-81
2020/12/27 03:29:34;;;;;;;1.48;0.45;;;1.80;74.90;;;;;;4892727;29;20168;-78
2020/12/27 03:32:01;;;;;;;1.65;0.60;;;1.80;75.20;;;;;;4891746;29;20041;-81
2020/12/27 03:34:33;;;;;;;1.13;0.55;;;1.70;75.20;;;;;;4897110;29;20068;-79
2020/12/27 03:37:00;;;;;;;1.55;0.63;;;1.70;75.70;;;;;;4879834;29;20084;-80
2020/12/27 03:40:00;;;;;;;1.60;0.50;;;1.60;75.80;;;;;;4858907;29;20048;-81
2020/12/27 03:42:48;;;;;;;5.10;0.88;;;1.50;76.40;;;;;;4877807;29;20324;-82
2020/12/27 03:45:16;;;;;;;0.82;0.45;;;1.50;76.50;;;;;;4862358;29;20056;-80
2020/12/27 03:48:06;;;;;;;1.05;0.63;;;1.40;76.80;;;;;;4899889;29;20048;-82
2020/12/27 03:51:08;;;;;;;1.30;0.52;;;1.40;76.60;;;;;;4813852;29;20072;-81
2020/12/27 03:53:36;;;;;;;1.58;0.68;;;1.40;76.80;;;;;;4865294;29;20041;-80
2020/12/27 03:56:24;;;;;;;6.50;0.80;;;1.40;76.70;;;;;;4860576;29;20065;-80
2020/12/27 03:59:06;;;;;;;2.67;1.05;;;1.30;77.10;;;;;;4862549;29;20092;-82
2020/12/27 04:01:41;;;;;;;1.23;0.45;;;1.30;77.20;;;;;;4880068;29;20289;-79
2020/12/27 04:04:08;;;;;;;0.70;0.40;;;1.30;77.60;;;;;;4864435;29;20084;-80
2020/12/27 04:06:35;;;;;;;1.15;0.60;;;1.20;77.60;;;;;;4862940;29;20051;-78
2020/12/27 04:09:22;;;;;;;1.40;0.47;;;1.30;77.50;;;;;;4875975;29;20641;-82
2020/12/27 04:11:52;;;;;;;1.83;0.75;;;1.20;77.60;;;;;;4879797;29;20067;-80
2020/12/27 04:14:19;;;;;;;5.20;0.70;;;1.20;77.60;;;;;;4875639;29;20053;-80
2020/12/27 04:16:47;;;;;;;3.83;0.80;;;1.30;77.20;;;;;;4882192;29;20074;-80
2020/12/27 04:19:17;;;;;;;1.67;0.50;;;1.30;77.00;;;;;;4877067;29;20049;-80
2020/12/27 04:21:53;;;;;;;1.00;0.50;;;1.30;76.80;;;;;;4890535;29;20333;-81
2020/12/27 04:24:48;;;;;;;1.75;0.65;;;1.30;76.90;;;;;;4866098;29;20035;-79
2020/12/27 04:27:18;;;;;;;4.65;1.05;;;1.30;77.30;;;;;;4877126;29;20052;-79
2020/12/27 04:29:47;;;;;;;0.52;0.40;;;1.30;76.90;;;;;;4875419;29;20041;-81
2020/12/27 04:32:18;;;;;;;3.70;0.73;;;1.30;77.00;;;;;;4876277;29;20053;-80
2020/12/27 04:34:56;;;;;;;1.75;0.80;;;1.40;76.60;;;;;;4858243;29;20049;-78
2020/12/27 04:37:23;;;;;;;0.82;0.40;;;1.50;76.30;;;;;;4855014;29;20056;-79
2020/12/27 04:40:00;;;;;;;2.00;0.80;;;1.50;76.00;;;;;;4859306;29;20052;-80
2020/12/27 04:42:31;;;;;;;2.42;0.85;;;1.60;76.00;;;;;;4866972;29;20061;-81
2020/12/27 04:45:03;;;;;;;2.45;0.70;;;1.60;75.70;;;;;;4862756;29;20113;-80
2020/12/27 04:47:57;;;;;;;2.17;0.77;;;1.60;75.80;;;;;;4846455;29;20339;-81
2020/12/27 04:51:02;;;;;;;2.00;0.75;;;1.70;75.40;;;;;;4878596;29;20053;-83
2020/12/27 04:53:33;;;;;;;2.60;1.05;;;1.70;75.30;;;;;;4859570;29;20205;-82
2020/12/27 04:56:07;;;;;;;0.63;0.43;;;1.70;75.60;;;;;;4876155;29;20049;-81
2020/12/27 04:58:47;;;;;;;3.38;1.15;;;1.70;75.50;;;;;;4850028;29;20059;-82
2020/12/27 05:01:19;;;;;;;1.88;0.80;;;1.70;75.00;;;;;;4885356;29;20344;-81
2020/12/27 05:03:55;;;;;;;1.00;0.50;;;1.70;75.10;;;;;;4890969;29;20049;-80
2020/12/27 05:06:22;;;;;;;1.02;0.57;;;1.70;74.90;;;;;;4880372;29;20064;-80
2020/12/27 05:08:49;;;;;;;1.63;0.70;;;1.70;75.10;;;;;;4888940;29;20053;-80
2020/12/27 05:11:21;;;;;;;2.83;0.90;;;1.80;75.00;;;;;;4857696;29;20129;-83
2020/12/27 05:13:59;;;;;;;2.55;1.15;;;1.80;74.90;;;;;;4871048;29;20085;-81
2020/12/27 05:16:41;;;;;;;1.85;0.77;;;1.80;74.40;;;;;;4867395;29;20443;-80
2020/12/27 05:19:10;;;;;;;2.60;0.43;;;1.80;74.60;;;;;;4875533;29;20273;-81
2020/12/27 05:21:38;;;;;;;1.85;0.88;;;1.90;74.50;;;;;;4858551;29;20055;-82
2020/12/27 05:24:18;;;;;;;1.60;0.60;;;1.90;74.00;;;;;;4872969;29;20056;-82
2020/12/27 05:26:59;;;;;;;1.77;0.60;;;1.90;73.70;;;;;;4884381;29;20057;-79
2020/12/27 05:30:01;;;;;;;2.90;1.00;;;1.90;73.60;;;;;;4836230;29;20054;-83
2020/12/27 05:32:56;;;;;;;3.80;1.27;;;1.90;73.80;;;;;;4870519;29;20112;-79
2020/12/27 05:36:01;;;;;;;1.00;0.43;;;1.90;73.60;;;;;;4861249;29;20065;-81
2020/12/27 05:38:30;;;;;;;2.85;1.13;;;1.90;73.50;;;;;;4859711;29;20072;-81
2020/12/27 05:41:27;;;;;;;2.08;0.73;;;1.90;73.50;;;;;;4883619;29;20080;-81
2020/12/27 05:44:03;;;;;;;0.82;0.65;;;1.90;73.30;;;;;;4859609;29;20059;-80
2020/12/27 05:46:31;;;;;;;1.75;0.80;;;1.80;72.90;;;;;;4877741;29;20045;-79
2020/12/27 05:49:00;;;;;;;2.35;0.85;;;1.90;73.20;;;;;;4854956;29;20370;-79
2020/12/27 05:51:38;;;;;;;2.60;1.15;;;1.90;72.80;;;;;;4870286;29;20061;-82
2020/12/27 05:54:11;;;;;;;3.17;0.98;;;1.90;73.20;;;;;;4861159;29;20069;-80
2020/12/27 05:56:57;;;;;;;1.40;0.77;;;1.90;73.50;;;;;;4875143;29;20360;-81
2020/12/27 05:59:29;;;;;;;1.50;0.60;;;1.90;72.60;;;;;;4872575;29;20101;-82
2020/12/27 06:02:04;;;;;;;1.23;0.82;;;1.90;72.40;;;;;;4858007;29;20069;-81
2020/12/27 06:05:06;;;;;;;1.98;0.85;;;1.90;72.10;;;;;;4860634;29;20072;-80
2020/12/27 06:07:35;;;;;;;1.02;0.52;;;2.00;72.30;;;;;;4885589;29;20064;-79
2020/12/27 06:10:06;;;;;;;2.03;0.73;;;2.00;72.60;;;;;;4874782;29;20077;-83
2020/12/27 06:13:20;;;;;;;1.33;0.40;;;1.90;72.30;;;;;;4858523;29;20059;-80
2020/12/27 06:16:12;;;;;;;2.53;0.95;;;2.00;72.60;;;;;;4887516;29;20064;-82
2020/12/27 06:19:12;;;;;;;3.33;0.82;;;2.00;73.00;;;;;;4871715;29;20178;-82
2020/12/27 06:21:41;;;;;;;2.13;0.77;;;2.00;72.80;;;;;;4874368;29;20109;-79
2020/12/27 06:24:13;;;;;;;4.43;1.27;;;2.00;72.60;;;;;;4884674;29;20390;-83
2020/12/27 06:26:42;;;;;;;3.83;1.17;;;2.00;72.60;;;;;;4886435;29;20399;-80
2020/12/27 06:29:21;;;;;;;1.23;1.05;;;2.00;72.90;;;;;;4856028;29;20244;-84
2020/12/27 06:31:55;;;;;;;1.48;0.60;;;2.00;72.30;;;;;;4886031;29;20129;-79
2020/12/27 06:34:56;;;;;;;1.90;0.88;;;2.00;72.70;;;;;;4884128;29;20308;-81
2020/12/27 06:37:24;;;;;;;4.10;0.80;;;1.90;73.20;;;;;;4871695;29;20057;-79
2020/12/27 06:40:20;;;;;;;3.83;1.20;;;2.00;73.50;;;;;;4874293;29;20051;-80
2020/12/27 06:43:17;;;;;;;1.98;1.15;;;1.90;73.50;;;;;;4869639;29;20124;-78
2020/12/27 06:45:52;;;;;;;1.63;0.73;;;1.90;74.00;;;;;;4844282;29;20059;-79
2020/12/27 06:48:33;;;;;;;2.38;0.90;;;1.90;74.10;;;;;;4876348;29;20073;-80
2020/12/27 06:51:37;;;;;;;2.30;0.93;;;1.80;74.30;;;;;;4894900;29;20067;-80
2020/12/27 06:54:08;;;;;;;4.80;1.25;;;1.90;73.80;;;;;;4881935;29;20060;-80
2020/12/27 06:56:42;;;;;;;2.40;1.27;;;1.80;73.50;;;;;;4871074;29;20119;-79
2020/12/27 06:59:47;;;;;;;1.83;0.82;;;1.90;73.90;;;;;;4863604;29;20403;-81
2020/12/27 07:02:21;;;;;;;2.95;1.20;;;1.90;73.70;;;;;;4868457;29;20049;-79
2020/12/27 07:04:48;;;;;;;1.90;1.17;;;1.90;73.80;;;;;;4874350;29;20093;-80
2020/12/27 07:07:36;;;;;;;1.98;1.13;;;1.90;73.80;;;;;;4875209;29;20057;-79
2020/12/27 07:10:06;;;;;;;1.58;0.85;;;1.80;74.00;;;;;;4892440;29;20095;-81
2020/12/27 07:12:35;;;;;;;1.40;0.80;;;1.80;74.00;;;;;;4878937;29;20063;-80
2020/12/27 07:15:10;;;;;;;5.43;1.35;;;1.80;74.30;;;;;;4855905;29;20053;-83
2020/12/27 07:17:42;;;;;;;2.35;0.70;;;1.80;74.40;;;;;;4873603;29;20132;-84
2020/12/27 07:20:15;;;;;;;;;;;1.80;74.50;;;;;;4874862;29;20056;-80
2020/12/27 07:22:43;;;;;;;3.15;1.23;;;1.80;74.60;;;;;;4876421;29;19919;-80
2020/12/27 07:25:14;;;;;;;2.00;0.77;;;1.70;74.90;;;;;;4877592;29;20074;-81
2020/12/27 07:27:43;;;;;;;5.65;1.02;;;1.70;74.60;;;;;;4878796;29;20057;-82
2020/12/27 07:30:15;;;;;;;1.55;0.80;;;1.70;75.00;;;;;;4878045;29;20064;-81
2020/12/27 07:32:44;;;;;;;2.38;0.82;;;1.70;74.90;;;;;;4860500;29;20053;-79
2020/12/27 07:35:13;;;;;;;3.22;0.90;;;1.70;75.20;;;;;;4862907;29;20064;-80
2020/12/27 07:37:44;;;;;;;3.15;1.08;;;1.70;74.80;;;;;;4895508;29;20093;-81
2020/12/27 07:40:15;;;;;;;4.05;1.13;;;1.70;74.90;;;;;;4860896;29;20056;-81
2020/12/27 07:42:42;;;;;;;4.00;0.95;;;1.70;74.90;;;;;;4892659;29;20108;-81
2020/12/27 07:45:12;;;;;;;2.88;1.05;;;1.70;75.10;;;;;;4860406;29;20260;-79
2020/12/27 07:47:42;;;;;;;2.63;1.20;;;1.70;75.20;;;;;;4876404;29;20285;-82
2020/12/27 07:50:10;;;;;;;2.15;1.40;;;1.70;75.40;;;;;;4874376;29;20325;-82
2020/12/27 07:52:45;;;;;;;2.25;1.00;;;1.70;75.20;;;;;;4893106;29;20053;-82
2020/12/27 07:55:12;;;;;;;5.05;1.00;;;1.70;75.80;;;;;;4859580;29;20325;-81
2020/12/27 07:57:44;;;;;;;2.95;1.40;;;1.70;75.10;;;;;;4875869;29;20058;-82
2020/12/27 08:00:12;;;;;;;8.40;2.00;;;1.80;75.20;;;;;;4893785;29;20064;-82
2020/12/27 08:02:44;;;;;;;1.73;0.80;;;1.70;75.20;;;;;;4862096;29;20068;-79
2020/12/27 08:05:12;;;;;;;2.05;0.98;;;1.80;75.10;;;;;;4860207;29;20049;-84
2020/12/27 08:07:40;;;;;;;3.72;1.20;;;1.90;74.70;;;;;;4876264;29;20209;-81
2020/12/27 08:10:23;;;;;;;3.67;1.48;;;1.80;74.60;;;;;;4889361;29;20048;-79
2020/12/27 08:12:53;;;;;;;4.68;0.93;;;1.80;74.80;;;;;;4888368;29;20052;-79
2020/12/27 08:15:21;;;;;;;3.13;1.15;;;1.90;75.00;;;;;;4876627;29;20104;-79
2020/12/27 08:18:07;;;;;;;3.25;1.50;;;1.80;75.30;;;;;;4876490;29;20069;-79
2020/12/27 08:20:44;;;;;;;4.95;1.45;;;1.80;75.70;;;;;;4860835;29;20328;-79
2020/12/27 08:23:11;;;;;;;2.33;0.98;;;1.80;74.90;;;;;;4883070;29;20053;-80
2020/12/27 08:25:39;;;;;;;2.65;0.95;;;1.80;75.40;;;;;;4888516;29;20068;-80
2020/12/27 08:28:09;;;;;;;3.97;1.40;;;1.80;75.20;;;;;;4897458;29;20161;-81
2020/12/27 08:30:37;;;;;;;1.75;0.90;;;1.90;75.10;;;;;;4893324;29;20225;-81
2020/12/27 08:33:13;;;;;;;2.25;0.75;;;1.90;74.70;;;;;;4875821;29;20264;-79
2020/12/27 08:35:43;;;;;;;6.40;2.17;;;1.90;74.60;;;;;;4894334;29;20056;-79
2020/12/27 08:38:40;;;;;;;3.38;1.77;;;2.00;74.80;;;;;;4883541;29;20089;-80
2020/12/27 08:41:20;;;;;;;1.83;1.35;;;2.00;74.40;;;;;;4846857;29;20054;-79
2020/12/27 08:44:19;;;;;;;3.20;1.37;;;2.00;74.50;;;;;;4889571;29;20371;-81
2020/12/27 08:46:51;;;;;;;4.38;1.08;;;2.00;74.60;;;;;;4904344;29;20056;-81
2020/12/27 08:49:31;;;;;;;2.15;1.02;;;2.00;74.20;;;;;;4891585;29;20065;-80
2020/12/27 08:52:05;;;;;;;1.83;0.83;;;2.10;74.40;;;;;;4908600;29;20119;-79
2020/12/27 08:54:34;;;;;;;3.35;1.20;;;2.00;74.10;;;;;;4867221;29;20080;-78
2020/12/27 08:57:04;;;;;;;3.38;1.63;;;2.10;74.40;;;;;;4885608;29;20362;-81
2020/12/27 08:59:39;;;;;;;2.33;0.80;;;2.10;74.00;;;;;;4890746;29;20061;-80
2020/12/27 09:02:11;;;;;;;1.90;0.70;;;2.10;74.10;;;;;;4889110;29;20060;-83
2020/12/27 09:04:38;;;;;;;3.83;0.98;;;2.20;73.00;;;;;;4878289;29;20065;-82
2020/12/27 09:07:07;;;;;;;3.10;1.08;;;2.20;73.30;;;;;;4894444;29;20044;-80
2020/12/27 09:09:34;;;;;;;4.57;1.50;;;2.20;73.70;;;;;;4906697;29;20254;-81
2020/12/27 09:12:09;;;;;;;1.77;0.90;;;2.20;73.30;;;;;;4893395;29;20115;-80
2020/12/27 09:14:37;;;;;;;1.85;0.85;;;2.30;73.30;;;;;;4889483;29;20048;-81
2020/12/27 09:17:13;;;;;;;2.45;1.08;;;2.40;73.60;;;;;;4881901;29;20076;-80
2020/12/27 09:19:46;;;;;;;4.20;1.05;;;2.40;73.40;;;;;;4908149;29;20052;-79
2020/12/27 09:22:13;;;;;;;2.90;0.80;;;2.40;73.20;;;;;;4897433;29;20395;-79
2020/12/27 09:24:40;;;;;;;1.83;0.95;;;2.40;72.80;;;;;;4871090;29;20221;-81
2020/12/27 09:27:08;;;;;;;2.22;0.82;;;2.50;73.00;;;;;;4871378;29;20057;-79
2020/12/27 09:29:35;;;;;;;4.50;1.77;;;2.60;73.00;;;;;;4884227;29;20064;-80
2020/12/27 09:32:14;;;;;;;5.88;1.58;;;2.60;72.90;;;;;;4888017;29;20041;-82
2020/12/27 09:34:42;;;;;;;0.63;0.40;;;2.70;72.70;;;;;;4880714;29;20052;-81
2020/12/27 09:37:16;;;;;;;1.08;0.68;;;2.80;73.40;;;;;;4892442;29;20066;-80
2020/12/27 09:39:54;;;;;;;2.45;1.27;;;2.80;72.10;;;;;;4883292;29;20266;-80
2020/12/27 09:42:22;;;;;;;1.35;0.57;;;2.80;71.70;;;;;;4882108;29;20248;-79
2020/12/27 09:44:49;;;;;;;4.20;0.80;;;2.90;72.10;;;;;;4881196;29;20237;-80
2020/12/27 09:47:26;;;;;;;1.50;0.50;;;2.90;71.80;;;;;;4890843;29;20057;-81
2020/12/27 09:50:02;;;;;;;2.88;0.88;;;2.90;71.40;;;;;;4891737;29;20057;-80
2020/12/27 09:52:29;;;;;;;1.95;0.60;;;3.00;71.70;;;;;;4859395;29;20045;-81
2020/12/27 09:54:57;;;;;;;3.58;0.52;;;3.00;71.80;;;;;;4887662;29;20064;-81
2020/12/27 09:57:27;;;;;;;6.72;1.60;;;3.10;71.20;;;;;;4891719;29;20083;-80
2020/12/27 09:59:54;;;;;;;1.48;0.65;;;3.10;71.30;;;;;;4895288;29;20053;-79
2020/12/27 10:02:22;;;;;;;2.13;0.80;;;3.10;71.20;;;;;;4888594;29;20063;-79
2020/12/27 10:04:49;;;;;;;2.35;0.98;;;3.20;71.20;;;;;;4874097;29;20360;-80
2020/12/27 10:07:19;;;;;;;1.25;0.57;;;3.20;70.90;;;;;;4883504;29;20419;-80
2020/12/27 10:09:45;;;;;;;3.22;0.77;;;3.20;70.80;;;;;;4873392;29;20064;-81
2020/12/27 10:12:13;;;;;;;1.48;0.73;;;3.20;70.60;;;;;;4896062;29;20057;-79
2020/12/27 10:14:40;;;;;;;1.27;0.70;;;3.10;70.40;;;;;;4869042;29;20045;-80
2020/12/27 10:17:07;;;;;;;1.50;0.70;;;3.20;70.50;;;;;;4886262;29;20059;-79
2020/12/27 10:19:33;;;;;;;3.00;0.95;;;3.20;70.80;;;;;;4847694;29;20061;-80
2020/12/27 10:22:15;;;;;;;1.87;0.70;;;3.20;70.70;;;;;;762464;29;10002311;-82
2020/12/27 10:24:43;;;;;;;4.22;0.90;;;3.10;70.60;;;;;;4878823;29;20060;-79
2020/12/27 10:27:10;;;;;;;1.63;0.40;;;3.10;70.70;;;;;;4871951;29;20099;-78
2020/12/27 10:29:38;;;;;;;1.70;0.68;;;3.20;70.80;;;;;;4871892;29;20058;-79
2020/12/27 10:32:06;;;;;;;1.48;0.88;;;3.20;70.70;;;;;;4875162;29;20050;-79
2020/12/27 10:34:33;;;;;;;2.38;0.80;;;3.40;70.70;;;;;;4871946;29;20097;-79
2020/12/27 10:37:02;;;;;;;2.28;0.80;;;3.50;70.60;;;;;;4855212;29;20340;-80
2020/12/27 10:39:29;;;;;;;2.88;1.38;;;3.50;70.60;;;;;;4871816;29;20105;-80
2020/12/27 10:41:58;;;;;;;2.00;0.65;;;3.50;70.40;;;;;;4871541;29;20053;-80
2020/12/27 10:44:28;;;;;;;3.13;0.77;;;3.60;70.50;;;;;;4877431;29;20061;-83
2020/12/27 10:46:58;;;;;;;2.00;0.90;;;3.70;70.50;;;;;;4871163;29;20050;-81
2020/12/27 10:49:26;;;;;;;2.10;1.00;;;3.70;70.30;;;;;;4877566;29;20110;-80
2020/12/27 10:51:53;;;;;;;2.03;0.95;;;3.70;69.90;;;;;;4870920;29;20329;-79
2020/12/27 10:54:21;;;;;;;2.30;0.52;;;3.80;69.80;;;;;;4872629;29;20072;-80
2020/12/27 10:56:48;;;;;;;3.97;1.20;;;3.80;69.90;;;;;;4872376;29;20077;-80
2020/12/27 10:59:16;;;;;;;2.53;0.82;;;3.80;70.20;;;;;;4877302;29;20057;-79
2020/12/27 11:01:45;;;;;;;2.95;1.02;;;3.90;69.50;;;;;;4875702;29;20065;-81
2020/12/27 11:04:13;;;;;;;2.05;0.65;;;3.80;69.70;;;;;;4859053;29;20076;-81
2020/12/27 11:06:40;;;;;;;2.42;1.00;;;3.80;69.70;;;;;;4880307;29;20375;-81
2020/12/27 11:09:13;;;;;;;1.27;0.70;;;3.80;69.70;;;;;;4890979;29;20186;-79
2020/12/27 11:11:40;;;;;;;1.35;0.60;;;3.70;69.40;;;;;;4868894;29;20056;-78
2020/12/27 11:14:08;;;;;;;3.55;1.20;;;3.70;69.70;;;;;;4892265;29;20064;-80
2020/12/27 11:16:36;;;;;;;1.08;0.60;;;3.70;69.60;;;;;;4879217;29;20078;-80
2020/12/27 11:19:04;;;;;;;3.15;0.70;;;3.60;69.30;;;;;;4882448;29;20060;-80
2020/12/27 11:21:30;;;;;;;2.72;0.90;;;3.60;69.80;;;;;;4885550;29;20049;-81
2020/12/27 11:23:57;;;;;;;1.10;0.55;;;3.60;69.70;;;;;;4871690;29;20037;-79
2020/12/27 11:26:24;;;;;;;0.82;0.40;;;3.60;69.80;;;;;;4879369;29;20052;-80
2020/12/27 11:28:52;;;;;;;3.38;0.88;;;3.60;69.70;;;;;;4880971;29;20049;-81
2020/12/27 11:31:19;;;;;;;2.47;0.90;;;3.70;70.10;;;;;;4880548;29;20109;-80
2020/12/27 11:33:47;;;;;;;1.90;0.52;;;3.60;69.70;;;;;;4863621;29;20057;-81
2020/12/27 11:36:15;;;;;;;2.42;0.93;;;3.60;69.50;;;;;;4876092;29;20340;-82
2020/12/27 11:38:43;;;;;;;2.83;1.15;;;3.60;69.20;;;;;;4876365;29;20050;-80
2020/12/27 11:41:12;;;;;;;1.27;0.77;;;3.50;69.40;;;;;;4877730;29;20081;-80
2020/12/27 11:43:39;;;;;;;2.38;1.15;;;3.60;69.50;;;;;;4879670;29;20087;-81
2020/12/27 11:46:08;;;;;;;2.05;0.77;;;3.50;69.30;;;;;;4881317;29;20061;-82
2020/12/27 11:48:37;;;;;;;1.52;0.55;;;3.50;69.20;;;;;;4874842;29;20049;-80
2020/12/27 11:51:05;;;;;;;1.27;0.85;;;3.40;69.30;;;;;;4856056;29;20053;-81
2020/12/27 11:53:34;;;;;;;3.15;1.00;;;3.40;69.30;;;;;;4899745;29;20057;-79
2020/12/27 11:56:00;;;;;;;0.77;0.47;;;3.40;69.30;;;;;;4884909;29;20056;-80
2020/12/27 11:58:28;;;;;;;2.10;0.95;;;3.40;69.20;;;;;;4872617;29;20052;-81
2020/12/27 12:00:54;;;;;;;2.00;0.93;;;3.40;69.20;;;;;;4874525;29;20052;-80
2020/12/27 12:03:21;;;;;;;1.88;0.80;;;3.50;69.30;;;;;;4877253;29;20076;-79
2020/12/27 12:05:48;;;;;;;2.33;0.75;;;3.50;69.50;;;;;;4877167;29;20061;-82
2020/12/27 12:08:16;;;;;;;1.77;0.65;;;3.50;69.10;;;;;;4877847;29;20344;-79
2020/12/27 12:10:43;;;;;;;1.38;0.70;;;3.50;69.10;;;;;;4892077;29;20074;-79
2020/12/27 12:13:11;;;;;;;4.60;1.33;;;3.60;69.00;;;;;;4886922;29;20053;-81
2020/12/27 12:15:38;;;;;;;2.53;0.93;;;3.70;68.80;;;;;;4874105;29;20077;-78
2020/12/27 12:18:10;;;;;;;1.98;0.65;;;3.70;68.60;;;;;;4886653;29;20098;-82
2020/12/27 12:20:44;;;;;;;2.90;1.42;;;3.70;68.60;;;;;;4865282;29;20290;-79
2020/12/27 12:23:16;;;;;;;1.88;1.02;;;3.70;68.40;;;;;;4883892;29;20057;-81
2020/12/27 12:25:45;;;;;;;2.30;1.10;;;3.70;68.10;;;;;;4877098;29;20065;-79
2020/12/27 12:28:13;;;;;;;2.75;1.27;;;3.70;68.00;;;;;;4875326;29;20061;-81
2020/12/27 12:30:40;;;;;;;2.15;0.98;;;3.70;68.50;;;;;;4876003;29;20379;-79
2020/12/27 12:33:07;;;;;;;1.88;0.50;;;3.70;68.10;;;;;;4869032;29;20056;-79
2020/12/27 12:35:34;;;;;;;1.23;0.68;;;3.70;68.20;;;;;;4862531;29;20059;-81
2020/12/27 12:38:01;;;;;;;6.50;0.80;;;3.70;68.00;;;;;;4887400;29;20068;-81
2020/12/27 12:40:29;;;;;;;1.92;0.82;;;3.70;68.10;;;;;;4886290;29;20069;-79
2020/12/27 12:42:57;;;;;;;1.92;0.50;;;3.70;68.00;;;;;;4873748;29;20061;-79
2020/12/27 12:45:24;;;;;;;1.35;0.88;;;3.70;68.30;;;;;;4889120;29;20061;-81
2020/12/27 12:47:51;;;;;;;4.30;1.10;;;3.70;67.70;;;;;;4881614;29;20105;-82
2020/12/27 12:50:19;;;;;;;2.00;0.70;;;3.70;68.00;;;;;;4863448;29;20379;-81
2020/12/27 12:52:45;;;;;;;2.33;0.80;;;3.60;68.30;;;;;;4891118;29;20344;-80
2020/12/27 12:55:12;;;;;;;3.80;1.60;;;3.60;68.30;;;;;;4879074;29;20060;-80
2020/12/27 12:57:40;;;;;;;2.97;1.08;;;3.60;68.40;;;;;;4890985;29;20086;-82
2020/12/27 13:00:08;;;;;;;1.60;0.85;;;3.60;68.30;;;;;;4886248;29;20442;-80
2020/12/27 13:02:35;;;;;;;5.10;1.27;;;3.60;68.10;;;;;;4854220;29;20353;-81
2020/12/27 13:05:06;;;;;;;1.90;0.90;;;3.60;68.00;;;;;;4865458;29;20052;-81
2020/12/27 13:07:33;;;;;;;;;;;3.60;68.30;;;;;;4874004;29;20356;-80
2020/12/27 13:10:05;;;;;;;3.05;1.02;;;3.60;68.20;;;;;;4887491;29;19920;-80
2020/12/27 13:12:33;;;;;;;1.60;0.70;;;3.60;68.50;;;;;;4889005;29;20332;-80
2020/12/27 13:15:01;;;;;;;1.83;0.80;;;3.70;68.60;;;;;;4875431;29;20387;-80
2020/12/27 13:17:28;;;;;;;3.05;0.95;;;3.70;68.40;;;;;;4876752;29;20061;-81
2020/12/27 13:19:55;;;;;;;3.65;0.70;;;3.70;68.40;;;;;;4883737;29;20121;-80
2020/12/27 13:22:21;;;;;;;1.85;0.63;;;3.60;68.40;;;;;;4873801;29;20048;-79
2020/12/27 13:24:48;;;;;;;2.17;0.90;;;3.70;68.00;;;;;;4865125;29;20061;-80
2020/12/27 13:27:15;;;;;;;1.73;0.95;;;3.70;68.20;;;;;;4869372;29;20329;-80